アムステルダム/スキポール の空港の天気 - METARとTAF

スキポール空港(アムステルダム) ( EHAM / AMS ) - オランダ アムステルダム
飛行場実況気象(Metar)
観測時間05/27 00:25 CEST (05/26 22:25 UTC)
風向・風速北西 4m/s
視程10km以上
天気現象
なし
気温13℃
湿度88%
気圧1035hPa
METAREHAM 262225Z 32007KT CAVOK 13/11 Q1035 NOSIG
過去の天気等 Google飛行場航空写真 Wunderground天気予報

過去48時間のMETAR

飛行場予報(TAF)
発表時間: 5/26 19:05 CEST (5/26 17:05 UTC)
予報対象時間: 26日20時 CEST ~ 28日2時 CEST
風向・風速北北西 4m/s
視程10km以上
なし
27日3時 CEST から 確率 30% で
視程4000m
天気現象もや 地霧
27日11時 CEST ~ 27日14時 CEST に徐々に
風向・風速北 6m/s
27日21時 CEST ~ 27日24時 CEST に徐々に
風向・風速北東 4m/s
TAF EHAM 261705Z 2618/2724 33007KT CAVOK
PROB30 2701/2705 4000 BR MIFG
BECMG 2709/2712 35012KT
BECMG 2719/2722 04007KT